Time;durP1;ratioP1;P1;durP2;ratioP2;P2;SDS_P1;SDS_P2;PMS_P1;PMS_P2;Temp;Humidity;BMP_temperature;BMP_pressure;BME280_temperature;BME280_humidity;BME280_pressure;Samples;Min_cycle;Max_cycle;Signal;HPM_P1;HPM_P2
2023/07/11 00:00:06;;;;;;;9.38;5.00;;;;;;;18.71;64.47;101193.63;682222;28;1088;-80
2023/07/11 00:00:27;;;;;;;10.35;5.00;;;;;;;18.75;64.44;101216.56;683900;28;1076;-78
2023/07/11 00:00:49;;;;;;;9.20;4.88;;;;;;;18.77;64.59;101214.78;684732;28;1355;-78
2023/07/11 00:01:16;;;;;;;8.15;5.18;;;;;;;18.76;64.76;101213.03;682313;28;1160;-78
2023/07/11 00:01:37;;;;;;;8.50;5.35;;;;;;;18.70;64.80;101197.16;679921;28;1172;-79
2023/07/11 00:01:57;;;;;;;8.70;5.18;;;;;;;18.67;64.94;101186.59;682395;28;1407;-78
2023/07/11 00:02:18;;;;;;;7.63;4.82;;;;;;;18.71;65.22;101198.91;684945;28;1231;-78
2023/07/11 00:02:39;;;;;;;7.07;4.80;;;;;;;18.66;65.02;101191.00;683379;28;1308;-79
2023/07/11 00:03:04;;;;;;;6.78;4.53;;;;;;;18.72;65.09;101190.09;682474;28;800;-78
2023/07/11 00:03:25;;;;;;;8.35;4.80;;;;;;;18.71;65.10;101193.63;684810;28;1084;-78
2023/07/11 00:03:46;;;;;;;9.30;5.30;;;;;;;18.71;65.06;101198.91;682534;28;1358;-79
2023/07/11 00:04:06;;;;;;;8.23;5.22;;;;;;;18.69;65.14;101195.41;682181;28;1096;-79
2023/07/11 00:04:27;;;;;;;6.85;4.85;;;;;;;18.69;64.82;101185.69;688558;28;1036;-79
2023/07/11 00:04:48;;;;;;;6.65;4.50;;;;;;;18.73;64.98;101203.34;682488;28;1930;-78
2023/07/11 00:05:11;;;;;;;7.20;4.50;;;;;;;18.71;65.11;101194.53;687642;28;1182;-79
2023/07/11 00:05:31;;;;;;;7.13;4.60;;;;;;;18.69;65.18;101200.69;682164;28;1235;-79
2023/07/11 00:06:12;;;;;;;6.63;4.60;;;;;;;18.66;65.31;101191.00;687262;28;1015;-78
2023/07/11 00:06:33;;;;;;;7.00;4.75;;;;;;;18.71;65.29;101198.91;685175;28;910;-78
2023/07/11 00:06:53;;;;;;;9.47;4.70;;;;;;;18.64;65.29;101198.03;685046;28;1069;-79
2023/07/11 00:07:14;;;;;;;8.68;4.47;;;;;;;18.60;65.32;101197.16;682390;28;1129;-78
2023/07/11 00:07:35;;;;;;;9.68;4.60;;;;;;;18.60;65.38;101197.16;685603;28;809;-79
2023/07/11 00:07:56;;;;;;;7.72;4.80;;;;;;;18.65;65.28;101205.09;680746;28;1542;-78
2023/07/11 00:08:16;;;;;;;7.47;4.60;;;;;;;18.67;65.36;101205.97;682416;29;1148;-78
2023/07/11 00:08:37;;;;;;;8.43;4.90;;;;;;;18.63;65.36;101194.50;685697;28;835;-78
2023/07/11 00:08:58;;;;;;;8.20;4.90;;;;;;;18.63;65.43;101204.22;685854;28;1349;-78
2023/07/11 00:09:19;;;;;;;7.33;4.87;;;;;;;18.58;65.35;101193.63;687459;28;1569;-79
2023/07/11 00:09:40;;;;;;;6.05;4.60;;;;;;;18.66;65.44;101198.03;682620;28;1565;-78
2023/07/11 00:10:01;;;;;;;5.93;4.57;;;;;;;18.54;65.57;101186.56;677776;29;1204;-78
2023/07/11 00:10:21;;;;;;;7.13;4.77;;;;;;;18.62;65.50;101199.78;678035;29;1639;-78
2023/07/11 00:10:42;;;;;;;7.18;5.05;;;;;;;18.60;65.42;101181.31;685866;28;708;-78
2023/07/11 00:11:05;;;;;;;6.85;5.05;;;;;;;18.59;65.56;101181.28;685577;28;1037;-79
2023/07/11 00:11:26;;;;;;;6.55;5.00;;;;;;;18.64;65.54;101192.75;682687;28;1248;-79
2023/07/11 00:11:46;;;;;;;7.17;5.07;;;;;;;18.56;65.50;101176.88;683242;28;1277;-79
2023/07/11 00:12:07;;;;;;;8.23;5.20;;;;;;;18.63;65.42;101183.94;684904;28;971;-79
2023/07/11 00:12:28;;;;;;;8.80;5.18;;;;;;;18.58;65.35;101176.88;688137;28;1070;-78
2023/07/11 00:12:49;;;;;;;10.93;5.07;;;;;;;18.61;65.53;101177.78;691110;28;1658;-78
2023/07/11 00:13:11;;;;;;;10.65;5.25;;;;;;;18.63;65.69;101185.72;682814;28;1311;-78
2023/07/11 00:13:32;;;;;;;10.95;5.32;;;;;;;18.59;65.49;101174.25;683021;28;1287;-79
2023/07/11 00:13:55;;;;;;;9.45;5.40;;;;;;;18.62;65.77;101182.19;680567;29;1137;-78
2023/07/11 00:14:16;;;;;;;9.13;5.13;;;;;;;18.66;65.44;101184.81;685120;28;1288;-78
2023/07/11 00:14:36;;;;;;;9.35;5.15;;;;;;;18.62;65.61;101187.47;682920;28;1154;-79
2023/07/11 00:14:57;;;;;;;9.63;5.30;;;;;;;18.69;65.78;101198.91;685626;28;952;-78
2023/07/11 00:15:18;;;;;;;9.32;5.40;;;;;;;18.62;65.52;101183.94;687919;28;1226;-78
2023/07/11 00:15:39;;;;;;;8.07;5.13;;;;;;;18.61;65.72;101185.69;682343;28;1197;-78
2023/07/11 00:16:03;;;;;;;7.40;4.60;;;;;;;18.64;65.54;101185.69;680110;28;1220;-78
2023/07/11 00:16:24;;;;;;;10.00;4.65;;;;;;;18.59;65.43;101176.00;682480;28;1350;-78
2023/07/11 00:16:45;;;;;;;10.07;4.90;;;;;;;18.62;65.64;101178.63;680324;29;780;-79
2023/07/11 00:17:06;;;;;;;9.43;5.10;;;;;;;18.60;65.57;101180.41;680303;28;1259;-78
2023/07/11 00:17:27;;;;;;;8.10;5.13;;;;;;;18.66;65.57;101192.75;682656;28;1371;-79
2023/07/11 00:17:48;;;;;;;9.55;4.90;;;;;;;18.66;65.64;101185.72;685577;28;1178;-79
2023/07/11 00:18:09;;;;;;;10.52;5.00;;;;;;;18.63;65.63;101181.28;685729;28;981;-79
2023/07/11 00:18:30;;;;;;;8.48;4.93;;;;;;;18.69;65.64;101190.13;682806;29;1056;-79
2023/07/11 00:18:51;;;;;;;8.38;5.10;;;;;;;18.65;65.59;101186.59;682906;29;978;-78
2023/07/11 00:19:12;;;;;;;7.68;5.10;;;;;;;18.61;65.59;101175.13;685395;28;1192;-78
2023/07/11 00:19:50;;;;;;;8.23;5.18;;;;;;;18.62;65.78;101184.81;685625;28;799;-78
2023/07/11 00:20:13;;;;;;;9.07;5.30;;;;;;;18.66;65.52;101179.53;680065;28;1107;-79
2023/07/11 00:20:34;;;;;;;7.65;5.10;;;;;;;18.61;65.65;101177.78;684920;28;1456;-79
2023/07/11 00:20:55;;;;;;;9.70;5.10;;;;;;;18.64;65.39;101183.06;690910;28;1179;-78
2023/07/11 00:21:16;;;;;;;8.90;4.75;;;;;;;18.68;65.60;101185.72;692175;28;1164;-79
2023/07/11 00:21:37;;;;;;;10.27;5.05;;;;;;;18.63;65.20;101177.78;682976;29;807;-79
2023/07/11 00:21:58;;;;;;;8.18;5.00;;;;;;;18.70;65.34;101186.59;685618;28;956;-78
2023/07/11 00:22:20;;;;;;;9.25;5.57;;;;;;;18.68;65.19;101188.34;677444;29;1266;-78
2023/07/11 00:22:42;;;;;;;9.27;5.75;;;;;;;18.64;65.40;101188.34;683112;28;787;-79
2023/07/11 00:23:03;;;;;;;9.48;5.88;;;;;;;18.68;65.32;101183.06;688616;28;1380;-78
2023/07/11 00:23:25;;;;;;;9.00;5.73;;;;;;;18.71;65.29;101189.25;690704;28;1055;-79
2023/07/11 00:23:45;;;;;;;9.05;5.75;;;;;;;18.61;65.29;101176.88;688198;28;1211;-78
2023/07/11 00:24:06;;;;;;;8.10;5.35;;;;;;;18.68;65.41;101183.06;688176;28;1132;-78
2023/07/11 00:24:27;;;;;;;7.78;5.10;;;;;;;18.66;65.24;101184.81;687859;28;1306;-78
2023/07/11 00:24:49;;;;;;;9.37;4.97;;;;;;;18.63;65.23;101177.78;685631;28;1964;-78
2023/07/11 00:25:10;;;;;;;9.52;5.10;;;;;;;18.65;65.09;101186.59;685912;28;1376;-79
2023/07/11 00:25:31;;;;;;;8.80;5.20;;;;;;;18.60;65.13;101172.47;685502;28;1304;-78
2023/07/11 00:25:52;;;;;;;7.77;5.27;;;;;;;18.67;65.19;101184.81;677161;29;1097;-78
2023/07/11 00:26:13;;;;;;;9.20;5.30;;;;;;;18.60;65.11;101176.00;685820;28;1364;-78
2023/07/11 00:26:34;;;;;;;8.70;5.00;;;;;;;18.60;65.18;101194.50;686246;28;1156;-79
2023/07/11 00:26:55;;;;;;;9.35;5.25;;;;;;;18.49;65.29;101168.06;685624;28;974;-78
2023/07/11 00:27:18;;;;;;;8.40;5.27;;;;;;;18.52;65.30;101172.47;685359;28;1066;-78
2023/07/11 00:27:38;;;;;;;7.85;5.50;;;;;;;18.58;65.48;101182.19;685590;28;1537;-78
2023/07/11 00:27:59;;;;;;;8.20;5.40;;;;;;;18.50;65.62;101177.75;683594;28;1213;-79
2023/07/11 00:28:44;;;;;;;8.57;5.30;;;;;;;18.57;65.44;101183.91;685790;28;1064;-78
2023/07/11 00:29:20;;;;;;;9.73;5.60;;;;;;;18.59;65.37;101184.81;685422;28;1196;-78
2023/07/11 00:29:41;;;;;;;9.07;5.60;;;;;;;18.59;65.57;101183.94;685657;28;1150;-78
2023/07/11 00:30:03;;;;;;;10.23;5.60;;;;;;;18.52;65.40;101168.94;682698;29;1131;-78
2023/07/11 00:30:24;;;;;;;11.52;6.13;;;;;;;18.53;65.44;101171.59;682518;28;1125;-78
2023/07/11 00:30:45;;;;;;;11.03;5.87;;;;;;;18.52;65.50;101163.66;683010;28;1142;-78
2023/07/11 00:31:06;;;;;;;9.40;5.78;;;;;;;18.58;65.43;101172.50;685331;28;1027;-78
2023/07/11 00:31:28;;;;;;;8.23;5.13;;;;;;;18.61;65.41;101182.16;685302;28;1467;-79
2023/07/11 00:31:49;;;;;;;9.18;5.10;;;;;;;18.52;65.30;101158.38;675100;29;1436;-78
2023/07/11 00:32:11;;;;;;;9.65;5.10;;;;;;;18.57;65.12;101173.34;679859;29;1235;-79
2023/07/11 00:32:33;;;;;;;8.85;5.10;;;;;;;18.55;65.27;101163.69;679916;29;1223;-79
2023/07/11 00:32:54;;;;;;;9.38;5.50;;;;;;;18.56;65.35;101163.66;678121;28;1448;-78
2023/07/11 00:33:16;;;;;;;9.23;5.60;;;;;;;18.60;65.65;101176.00;679877;29;1256;-78
2023/07/11 00:33:36;;;;;;;9.88;5.40;;;;;;;18.58;65.21;101171.59;683117;28;717;-79
2023/07/11 00:33:57;;;;;;;8.07;5.10;;;;;;;18.51;65.36;101165.44;682755;29;1183;-79
2023/07/11 00:34:18;;;;;;;9.40;5.28;;;;;;;18.52;65.36;101166.31;682548;29;1235;-78
2023/07/11 00:34:38;;;;;;;8.63;5.32;;;;;;;18.55;65.38;101167.19;685617;28;1264;-78
2023/07/11 00:34:59;;;;;;;9.77;5.33;;;;;;;18.50;65.28;101159.25;680245;28;1129;-79
2023/07/11 00:35:20;;;;;;;9.82;5.35;;;;;;;18.47;65.15;101161.00;685141;28;1241;-78
2023/07/11 00:35:45;;;;;;;10.43;5.47;;;;;;;18.50;64.98;101158.34;682518;28;1357;-79
2023/07/11 00:36:06;;;;;;;8.52;5.40;;;;;;;18.45;65.19;101165.44;685414;28;1075;-78
2023/07/11 00:36:28;;;;;;;7.35;5.20;;;;;;;18.45;65.33;101154.84;688350;28;1171;-77
2023/07/11 00:36:49;;;;;;;7.57;5.20;;;;;;;18.44;65.41;101158.38;685532;28;1208;-79
2023/07/11 00:37:10;;;;;;;7.90;5.35;;;;;;;18.52;65.25;101167.19;687937;28;1443;-78
2023/07/11 00:37:31;;;;;;;7.47;5.20;;;;;;;18.53;65.31;101168.97;680319;29;1008;-78
2023/07/11 00:37:52;;;;;;;8.55;5.35;;;;;;;18.53;65.51;101168.97;680200;29;1066;-78
2023/07/11 00:38:12;;;;;;;8.80;5.47;;;;;;;18.47;65.31;101161.91;679893;28;1255;-78
2023/07/11 00:38:33;;;;;;;9.32;5.38;;;;;;;18.48;65.48;101161.03;682996;29;877;-78
2023/07/11 00:38:54;;;;;;;9.13;5.23;;;;;;;18.52;65.55;101169.84;685489;28;977;-78
2023/07/11 00:39:16;;;;;;;8.40;5.07;;;;;;;18.44;65.60;101150.44;686829;28;1111;-78
2023/07/11 00:39:37;;;;;;;7.25;4.88;;;;;;;18.48;65.67;101160.13;688386;28;886;-78
2023/07/11 00:39:58;;;;;;;6.60;4.63;;;;;;;18.48;65.57;101160.13;685630;28;1450;-78
2023/07/11 00:40:19;;;;;;;7.03;4.95;;;;;;;18.53;65.57;101163.66;685758;28;988;-78
2023/07/11 00:40:44;;;;;;;7.50;5.10;;;;;;;18.48;65.50;101155.75;690990;28;1270;-78
2023/07/11 00:41:08;;;;;;;8.15;5.40;;;;;;;18.49;65.70;101159.25;689997;28;1008;-78
2023/07/11 00:41:28;;;;;;;9.60;5.70;;;;;;;18.45;65.60;101155.72;690543;28;1051;-78
2023/07/11 00:41:49;;;;;;;9.50;5.90;;;;;;;18.43;65.88;101152.19;688227;28;969;-79
2023/07/11 00:42:10;;;;;;;8.60;5.30;;;;;;;18.41;65.75;101147.78;685940;28;1189;-78
2023/07/11 00:42:31;;;;;;;8.70;5.15;;;;;;;18.45;65.66;101157.50;685598;28;1059;-79
2023/07/11 00:42:54;;;;;;;9.82;5.43;;;;;;;18.46;65.92;101156.59;685231;28;1209;-78
2023/07/11 00:43:18;;;;;;;10.60;5.78;;;;;;;18.46;66.00;101167.19;682494;28;1414;-78
2023/07/11 00:43:38;;;;;;;9.50;5.72;;;;;;;18.50;65.90;101167.19;688092;28;1127;-78
2023/07/11 00:44:00;;;;;;;8.77;5.50;;;;;;;18.45;66.17;101157.50;685586;28;953;-78
2023/07/11 00:44:22;;;;;;;8.18;5.28;;;;;;;18.48;66.08;101165.41;685273;28;1171;-79
2023/07/11 00:44:49;;;;;;;7.50;5.10;;;;;;;18.50;66.01;101163.66;680394;28;1340;-79
2023/07/11 00:45:48;;;;;;;8.43;5.00;;;;;;;18.50;65.85;101168.94;680045;28;1063;-78
2023/07/11 00:46:15;;;;;;;8.52;5.35;;;;;;;18.45;66.00;101161.00;685450;28;1274;-79
2023/07/11 00:46:35;;;;;;;8.45;5.63;;;;;;;18.39;65.96;101146.91;686726;28;1125;-78
2023/07/11 00:46:56;;;;;;;7.97;5.50;;;;;;;18.42;66.16;101162.75;682799;28;1225;-78
2023/07/11 00:47:17;;;;;;;6.90;5.60;;;;;;;18.43;66.06;101151.34;682317;28;1191;-78
2023/07/11 00:47:38;;;;;;;7.28;5.57;;;;;;;18.40;66.01;101146.03;685633;28;1387;-78
2023/07/11 00:47:58;;;;;;;8.48;5.50;;;;;;;18.45;66.02;101149.56;688198;28;1045;-78
2023/07/11 00:48:22;;;;;;;8.50;5.13;;;;;;;18.47;65.94;101158.38;685116;28;1200;-78
2023/07/11 00:48:54;;;;;;;8.43;5.00;;;;;;;18.40;65.97;101151.31;685609;28;1863;-78
2023/07/11 00:49:18;;;;;;;8.10;5.40;;;;;;;18.42;65.82;101154.81;687908;28;1040;-79
2023/07/11 00:49:38;;;;;;;8.25;5.30;;;;;;;18.33;65.97;101139.88;691019;28;783;-78
2023/07/11 00:50:05;;;;;;;8.15;5.32;;;;;;;18.42;65.96;101154.81;690862;28;933;-78
2023/07/11 00:50:26;;;;;;;8.57;5.60;;;;;;;18.34;66.01;101139.84;685124;28;987;-78
2023/07/11 00:50:47;;;;;;;8.83;5.60;;;;;;;18.43;66.03;101156.63;682949;29;784;-78
2023/07/11 00:51:11;;;;;;;9.55;5.28;;;;;;;18.33;66.12;101140.72;685267;28;1121;-79
2023/07/11 00:51:36;;;;;;;11.00;5.10;;;;;;;18.38;66.23;101145.16;685389;28;882;-78
2023/07/11 00:52:00;;;;;;;12.20;5.53;;;;;;;18.35;66.07;101146.91;688166;28;1030;-78
2023/07/11 00:52:22;;;;;;;10.90;5.40;;;;;;;18.28;65.92;101136.31;687742;28;964;-79
2023/07/11 00:52:43;;;;;;;8.18;5.40;;;;;;;18.31;65.97;101150.41;682906;28;1084;-79
2023/07/11 00:53:03;;;;;;;7.60;5.13;;;;;;;18.31;66.23;101142.50;685338;28;1268;-79
2023/07/11 00:53:25;;;;;;;7.28;5.07;;;;;;;18.29;66.30;101148.66;685356;28;995;-79
2023/07/11 00:53:46;;;;;;;7.22;5.00;;;;;;;18.25;66.35;101139.84;686830;28;867;-78
2023/07/11 00:54:11;;;;;;;8.05;4.95;;;;;;;18.24;66.40;101134.56;685247;28;1130;-78
2023/07/11 00:54:35;;;;;;;10.00;5.50;;;;;;;18.28;66.41;101153.06;686742;28;1013;-79
2023/07/11 00:55:01;;;;;;;13.23;5.70;;;;;;;18.24;66.59;101140.72;685606;28;1033;-78
2023/07/11 00:55:22;;;;;;;11.70;5.45;;;;;;;18.20;66.57;101129.25;686072;28;1191;-78
2023/07/11 00:55:45;;;;;;;8.73;5.20;;;;;;;18.19;66.51;101132.78;687331;28;1407;-78
2023/07/11 00:56:08;;;;;;;8.60;5.68;;;;;;;18.27;66.51;101146.03;677455;28;1374;-78
2023/07/11 00:56:33;;;;;;;9.85;5.95;;;;;;;18.22;66.67;101143.34;685858;28;1414;-78
2023/07/11 00:56:56;;;;;;;12.57;5.97;;;;;;;18.20;66.62;101142.47;685336;28;1092;-78
2023/07/11 00:57:23;;;;;;;13.15;5.70;;;;;;;18.25;66.75;101145.13;686995;28;1291;-78
2023/07/11 00:57:44;;;;;;;12.73;5.53;;;;;;;18.24;66.76;101148.63;683001;28;843;-78
2023/07/11 00:58:05;;;;;;;7.90;5.28;;;;;;;18.13;66.67;101135.38;688006;28;1070;-78
2023/07/11 00:58:26;;;;;;;6.85;5.15;;;;;;;18.17;66.76;101144.22;685365;28;1059;-78
2023/07/11 00:58:50;;;;;;;6.95;5.50;;;;;;;18.17;66.66;101142.47;683388;28;1324;-79
2023/07/11 00:59:12;;;;;;;8.05;5.65;;;;;;;18.11;66.59;101134.50;680173;29;989;-79
2023/07/11 00:59:33;;;;;;;9.10;6.10;;;;;;;18.17;66.76;101145.13;685374;28;1204;-79
2023/07/11 00:59:54;;;;;;;9.00;6.20;;;;;;;18.17;66.74;101144.22;688344;28;1414;-78
2023/07/11 01:00:15;;;;;;;8.18;6.10;;;;;;;18.08;66.73;101131.88;690525;28;1241;-79
2023/07/11 01:00:35;;;;;;;7.80;6.13;;;;;;;18.07;66.90;101141.53;688345;28;1194;-79
2023/07/11 01:00:59;;;;;;;7.30;5.88;;;;;;;18.06;66.95;101134.50;688140;28;1342;-78
2023/07/11 01:01:20;;;;;;;8.90;6.15;;;;;;;18.04;66.88;101136.25;690433;28;1091;-79
2023/07/11 01:01:44;;;;;;;11.27;6.10;;;;;;;18.09;67.08;101142.41;690995;28;866;-78
2023/07/11 01:02:11;;;;;;;11.60;5.95;;;;;;;18.07;67.14;101138.88;690818;28;1084;-78
2023/07/11 01:02:33;;;;;;;10.65;5.72;;;;;;;18.12;67.10;101140.69;685461;28;1194;-78
2023/07/11 01:02:54;;;;;;;10.63;6.10;;;;;;;18.10;67.17;101143.31;682821;28;977;-78
2023/07/11 01:03:14;;;;;;;10.00;6.07;;;;;;;18.07;67.15;101133.59;685275;28;1211;-78
2023/07/11 01:03:35;;;;;;;9.05;5.85;;;;;;;18.05;67.35;101135.38;688105;28;1200;-79
2023/07/11 01:03:56;;;;;;;9.95;5.70;;;;;;;18.10;67.19;101140.66;685536;28;947;-79
2023/07/11 01:04:19;;;;;;;11.88;6.05;;;;;;;18.09;67.34;101138.91;687392;28;1467;-78
2023/07/11 01:04:40;;;;;;;11.20;5.97;;;;;;;18.06;67.34;101131.84;685631;28;850;-78
2023/07/11 01:05:03;;;;;;;8.90;5.57;;;;;;;18.11;67.21;101138.88;679795;29;1906;-78
2023/07/11 01:05:23;;;;;;;7.60;5.43;;;;;;;17.99;67.33;101123.88;685168;28;1038;-78
2023/07/11 01:05:44;;;;;;;8.03;5.57;;;;;;;17.98;67.27;101128.31;687458;28;1283;-79
2023/07/11 01:06:17;;;;;;;9.00;6.00;;;;;;;17.96;67.23;101116.88;688483;28;1189;-78
2023/07/11 01:06:38;;;;;;;9.77;6.18;;;;;;;17.95;67.34;101125.66;682821;28;1262;-79
2023/07/11 01:06:59;;;;;;;9.60;5.90;;;;;;;17.95;67.22;101128.31;684907;28;1325;-78
2023/07/11 01:07:24;;;;;;;9.30;5.50;;;;;;;17.96;67.33;101132.72;684972;28;1288;-78
2023/07/11 01:07:45;;;;;;;7.75;5.18;;;;;;;17.89;67.11;101117.72;685465;28;838;-79
2023/07/11 01:08:07;;;;;;;7.35;5.30;;;;;;;17.92;67.20;101129.19;679929;29;1439;-78
2023/07/11 01:08:27;;;;;;;8.43;5.55;;;;;;;17.90;67.31;101122.13;682471;28;1375;-78
2023/07/11 01:08:50;;;;;;;10.07;5.80;;;;;;;17.89;67.34;101123.00;685779;28;1283;-78
2023/07/11 01:09:12;;;;;;;10.90;5.65;;;;;;;17.89;67.33;101128.28;683012;28;1443;-78
2023/07/11 01:09:33;;;;;;;9.02;5.53;;;;;;;17.94;67.41;101139.72;682612;29;1270;-78
2023/07/11 01:09:53;;;;;;;9.48;5.30;;;;;;;17.85;67.55;101126.50;685504;28;957;-79
2023/07/11 01:10:14;;;;;;;8.60;5.40;;;;;;;17.87;67.49;101127.38;682563;28;1031;-78
2023/07/11 01:10:35;;;;;;;9.77;5.67;;;;;;;17.85;67.76;101121.22;685650;28;1199;-78
2023/07/11 01:10:56;;;;;;;10.70;5.90;;;;;;;17.93;67.93;101144.13;688158;28;984;-78
2023/07/11 01:11:18;;;;;;;11.57;5.85;;;;;;;17.90;67.77;101136.19;687825;28;1254;-79
2023/07/11 01:12:12;;;;;;;10.05;5.85;;;;;;;17.98;67.74;101141.50;688279;28;854;-78
2023/07/11 01:12:33;;;;;;;9.27;5.95;;;;;;;17.92;67.64;101134.47;681890;28;1383;-79
2023/07/11 01:12:59;;;;;;;9.83;5.97;;;;;;;17.91;67.55;101132.69;679598;29;1136;-78
2023/07/11 01:13:20;;;;;;;9.20;5.90;;;;;;;17.86;67.89;101117.69;679781;29;1183;-79
2023/07/11 01:13:40;;;;;;;10.13;6.10;;;;;;;17.90;67.62;101125.63;685455;28;1283;-79
2023/07/11 01:14:01;;;;;;;10.43;5.63;;;;;;;17.87;67.91;101122.09;682716;29;1116;-79
2023/07/11 01:14:23;;;;;;;12.77;5.88;;;;;;;17.93;67.61;101140.59;679924;29;1070;-78
2023/07/11 01:14:47;;;;;;;10.73;5.65;;;;;;;17.88;67.77;101127.38;677609;29;837;-78
2023/07/11 01:15:08;;;;;;;10.90;6.00;;;;;;;17.79;67.83;101117.69;682565;29;1205;-78
2023/07/11 01:15:29;;;;;;;9.63;6.03;;;;;;;17.82;67.73;101124.72;685199;28;1031;-78
2023/07/11 01:15:49;;;;;;;11.73;6.30;;;;;;;17.83;67.76;101130.91;687420;28;1047;-79
2023/07/11 01:16:10;;;;;;;11.57;6.13;;;;;;;17.74;67.92;101114.16;680038;29;1094;-78
2023/07/11 01:16:31;;;;;;;10.57;5.93;;;;;;;17.79;67.91;101122.97;682367;28;1702;-79
2023/07/11 01:16:52;;;;;;;9.18;5.80;;;;;;;17.84;67.78;101138.84;674894;29;1015;-78
2023/07/11 01:17:30;;;;;;;8.13;5.72;;;;;;;17.85;67.96;101132.66;682425;28;1906;-79
2023/07/11 01:17:51;;;;;;;10.73;5.95;;;;;;;17.76;68.12;101128.22;682653;29;990;-78
2023/07/11 01:18:12;;;;;;;10.73;6.00;;;;;;;17.76;68.14;101119.44;685168;28;1403;-79
2023/07/11 01:18:33;;;;;;;9.50;5.88;;;;;;;17.80;68.21;101134.41;685525;28;854;-78
2023/07/11 01:18:53;;;;;;;9.27;5.88;;;;;;;17.81;68.36;101137.06;682525;28;1159;-79
2023/07/11 01:19:14;;;;;;;9.25;5.97;;;;;;;17.76;68.24;101125.59;682379;28;998;-79
2023/07/11 01:19:35;;;;;;;9.63;6.00;;;;;;;17.80;68.10;101137.03;677407;29;1228;-78
2023/07/11 01:19:58;;;;;;;10.30;6.30;;;;;;;17.66;68.03;101113.25;682714;29;950;-79
2023/07/11 01:20:22;;;;;;;11.65;6.20;;;;;;;17.76;68.30;101130.00;682441;28;1155;-81
2023/07/11 01:20:43;;;;;;;11.02;6.05;;;;;;;17.73;68.25;101128.22;690901;28;1183;-78
2023/07/11 01:21:04;;;;;;;10.38;6.28;;;;;;;17.65;68.24;101112.34;688018;28;1153;-78
2023/07/11 01:21:25;;;;;;;12.10;6.70;;;;;;;17.72;68.23;101129.09;682630;28;1289;-79
2023/07/11 01:21:47;;;;;;;13.05;6.85;;;;;;;17.73;68.15;101125.59;682880;28;1382;-78
2023/07/11 01:22:08;;;;;;;11.65;6.30;;;;;;;17.78;68.16;101142.31;682645;28;1180;-78
2023/07/11 01:22:30;;;;;;;11.07;6.27;;;;;;;17.72;68.27;101125.56;687779;28;1143;-78
2023/07/11 01:22:52;;;;;;;9.05;6.03;;;;;;;17.73;68.46;101128.22;688418;28;1150;-78
2023/07/11 01:23:14;;;;;;;8.90;6.20;;;;;;;17.64;68.32;101113.22;690036;28;1258;-79
2023/07/11 01:23:35;;;;;;;8.20;6.13;;;;;;;17.73;68.28;101127.34;687270;28;854;-78
2023/07/11 01:23:55;;;;;;;7.38;5.53;;;;;;;17.70;68.42;101122.91;687117;28;1225;-78
2023/07/11 01:24:17;;;;;;;8.20;5.60;;;;;;;17.70;68.35;101128.19;683088;28;1252;-78
2023/07/11 01:24:37;;;;;;;9.25;5.72;;;;;;;17.70;68.36;101122.06;683521;28;1103;-78
2023/07/11 01:25:05;;;;;;;10.03;6.20;;;;;;;17.65;68.52;101120.25;687523;28;1915;-79
2023/07/11 01:25:26;;;;;;;8.98;6.10;;;;;;;17.71;68.59;101134.38;684989;28;1397;-78
2023/07/11 01:25:47;;;;;;;8.18;6.07;;;;;;;17.67;68.65;101122.91;684901;28;836;-78
2023/07/11 01:26:08;;;;;;;7.55;5.82;;;;;;;17.68;68.64;101117.66;682631;29;1180;-79
2023/07/11 01:26:29;;;;;;;7.50;5.80;;;;;;;17.63;68.51;101111.47;687865;28;1106;-78
2023/07/11 01:26:50;;;;;;;9.80;6.03;;;;;;;17.71;68.58;101126.47;685355;28;1259;-79
2023/07/11 01:27:12;;;;;;;12.25;6.40;;;;;;;17.61;68.54;101107.94;685298;28;1265;-78
2023/07/11 01:27:33;;;;;;;13.40;6.60;;;;;;;17.67;68.58;101120.28;680623;28;1323;-78
2023/07/11 01:27:53;;;;;;;11.57;6.28;;;;;;;17.66;68.73;101118.53;685387;28;1005;-78
2023/07/11 01:28:14;;;;;;;8.80;6.13;;;;;;;17.64;68.73;101115.88;680014;29;1094;-79
2023/07/11 01:28:35;;;;;;;9.77;5.93;;;;;;;17.62;68.69;101108.81;690731;28;1257;-78
2023/07/11 01:28:56;;;;;;;9.90;6.00;;;;;;;17.70;68.65;101128.19;685467;28;1087;-78
2023/07/11 01:29:17;;;;;;;10.85;6.07;;;;;;;17.66;68.68;101115.88;685514;28;1274;-79
2023/07/11 01:29:38;;;;;;;9.30;5.90;;;;;;;17.60;68.62;101110.56;688244;28;780;-79
2023/07/11 01:30:03;;;;;;;9.52;6.00;;;;;;;17.64;68.62;101122.91;682798;29;981;-78
2023/07/11 01:30:24;;;;;;;10.82;6.22;;;;;;;17.69;68.78;101126.44;685091;28;966;-78
2023/07/11 01:30:45;;;;;;;10.88;6.30;;;;;;;17.69;68.86;101126.44;688184;28;1020;-78
2023/07/11 01:31:07;;;;;;;10.52;6.18;;;;;;;17.65;68.85;101122.03;684750;28;1328;-78
2023/07/11 01:31:29;;;;;;;9.23;6.32;;;;;;;17.64;68.68;101112.38;682456;28;1474;-78
2023/07/11 01:31:50;;;;;;;9.73;6.72;;;;;;;17.65;68.69;101117.63;685493;28;1083;-78
2023/07/11 01:32:10;;;;;;;9.93;6.65;;;;;;;17.67;68.79;101117.66;688031;28;976;-79
2023/07/11 01:32:33;;;;;;;9.25;6.30;;;;;;;17.64;68.71;101113.22;690558;28;1394;-79
2023/07/11 01:32:54;;;;;;;8.97;6.30;;;;;;;17.76;68.65;101127.38;689039;28;1223;-78
2023/07/11 01:33:15;;;;;;;8.82;6.32;;;;;;;17.74;68.75;101119.44;684890;28;1300;-79
2023/07/11 01:33:38;;;;;;;11.13;6.40;;;;;;;17.71;68.49;101119.44;682910;29;894;-78
2023/07/11 01:33:58;;;;;;;11.90;6.30;;;;;;;17.67;68.32;101107.09;682658;29;996;-79
2023/07/11 01:34:19;;;;;;;12.75;6.80;;;;;;;17.70;68.47;101117.63;682418;28;1111;-79
2023/07/11 01:34:40;;;;;;;10.88;6.65;;;;;;;17.73;68.47;101127.34;680139;29;1293;-78
2023/07/11 01:35:01;;;;;;;9.93;6.20;;;;;;;17.66;68.47;101107.97;680036;29;1184;-78
2023/07/11 01:35:22;;;;;;;10.05;5.95;;;;;;;17.70;68.35;101107.09;681923;29;1217;-78
2023/07/11 01:35:42;;;;;;;10.52;6.30;;;;;;;17.67;68.46;101107.97;682239;28;1267;-79
2023/07/11 01:36:03;;;;;;;10.30;6.45;;;;;;;17.75;68.28;101125.56;685238;28;1029;-79
2023/07/11 01:36:24;;;;;;;9.00;6.40;;;;;;;17.73;68.38;101122.06;685516;28;1206;-78
2023/07/11 01:36:45;;;;;;;8.50;6.03;;;;;;;17.73;68.20;101117.66;680269;28;1215;-78
2023/07/11 01:37:06;;;;;;;8.70;6.15;;;;;;;17.60;68.51;101102.66;680064;29;1109;-78
2023/07/11 01:37:26;;;;;;;9.20;6.13;;;;;;;17.58;68.47;101110.56;685256;28;1438;-78
2023/07/11 01:37:47;;;;;;;9.05;6.45;;;;;;;17.67;68.39;101128.19;688199;28;835;-78
2023/07/11 01:38:07;;;;;;;10.20;6.40;;;;;;;17.56;68.57;101109.69;688029;28;1105;-78
2023/07/11 01:38:28;;;;;;;11.27;6.50;;;;;;;17.62;68.62;101115.00;685100;28;1240;-78
2023/07/11 01:38:49;;;;;;;11.20;6.10;;;;;;;17.64;68.62;101104.44;685440;28;996;-78
2023/07/11 01:39:10;;;;;;;9.68;6.05;;;;;;;17.62;68.39;101103.53;685746;28;1716;-78
2023/07/11 01:39:31;;;;;;;9.07;6.07;;;;;;;17.66;68.44;101114.09;685228;28;1033;-78
2023/07/11 01:39:52;;;;;;;10.30;6.75;;;;;;;17.66;68.33;101108.81;685362;28;1127;-78
2023/07/11 01:40:12;;;;;;;10.70;6.80;;;;;;;17.66;68.42;101107.97;690458;28;1232;-78
2023/07/11 01:40:33;;;;;;;9.82;6.88;;;;;;;17.69;68.43;101115.88;685290;28;803;-78
2023/07/11 01:40:54;;;;;;;8.88;6.40;;;;;;;17.67;68.18;101101.81;685301;28;1021;-78
2023/07/11 01:41:16;;;;;;;8.80;6.50;;;;;;;17.67;68.32;101107.97;685004;28;1128;-78
2023/07/11 01:41:36;;;;;;;9.10;6.40;;;;;;;17.71;68.41;101119.44;680243;29;867;-78
2023/07/11 01:41:57;;;;;;;10.33;6.30;;;;;;;17.72;68.46;101113.28;680139;29;1073;-78
2023/07/11 01:42:18;;;;;;;10.40;6.55;;;;;;;17.66;68.41;101106.19;681918;29;1290;-78
2023/07/11 01:42:40;;;;;;;9.48;6.57;;;;;;;17.69;68.60;101107.97;684727;28;1232;-78
2023/07/11 01:43:02;;;;;;;9.88;6.70;;;;;;;17.63;68.54;101100.00;682781;28;1078;-79
2023/07/11 01:43:22;;;;;;;9.32;6.40;;;;;;;17.66;68.70;101100.03;679890;29;1010;-79
2023/07/11 01:43:44;;;;;;;9.70;6.40;;;;;;;17.72;68.67;101115.91;685482;28;1217;-78
2023/07/11 01:44:05;;;;;;;9.23;6.47;;;;;;;17.70;68.49;101104.44;685617;28;1308;-78
2023/07/11 01:44:26;;;;;;;9.32;6.43;;;;;;;17.67;68.53;101102.69;685165;28;985;-79
2023/07/11 01:44:47;;;;;;;8.45;6.10;;;;;;;17.73;68.55;101117.66;682975;29;728;-78
2023/07/11 01:45:10;;;;;;;9.07;5.90;;;;;;;17.66;68.45;101100.03;687775;28;1985;-78
2023/07/11 01:45:30;;;;;;;10.27;6.38;;;;;;;17.71;68.54;101105.34;685179;28;1056;-78